Wetterdaten der Wetterstation 41540 Dormagen

Letzte Wetterlage 27.04.2015 02:00
Wetterdiagramm
Tabellarische Darstellung
Datum Temperatur Windchill Feuchte Luftdruck Windrichtung Windstärke Niederschlag
27.04.2015 02:05 12,8 °C 12,8 °C 92 % 1004,8 hPa 315 1.0 1,4 l/m²
27.04.2015 02:00 12,9 °C 12,9 °C 91 % 1005,0 hPa 0.7 1,4 l/m²
27.04.2015 01:55 13,3 °C 13,3 °C 90 % 1005,1 hPa 315 0.7 0,9 l/m²
27.04.2015 01:50 12,8 °C 12,8 °C 92 % 1004,8 hPa 315 0.7 1,7 l/m²
27.04.2015 01:45 13,0 °C 13,0 °C 91 % 1004,9 hPa 0.7 1,2 l/m²
27.04.2015 01:40 13,1 °C 13,1 °C 90 % 1005,0 hPa 315 0.7 1,1 l/m²
27.04.2015 01:35 13,3 °C 13,3 °C 90 % 1005,0 hPa 0.7 1,0 l/m²
27.04.2015 01:30 13,5 °C 13,5 °C 90 % 1005,2 hPa 315 0.3 0,5 l/m²
27.04.2015 01:25 13,5 °C 13,5 °C 90 % 1005,1 hPa 0.0 0,4 l/m²
27.04.2015 01:20 13,6 °C 13,6 °C 90 % 1005,1 hPa 68 0.3 0,4 l/m²
27.04.2015 01:15 13,3 °C 13,3 °C 90 % 1005,0 hPa 315 0.0 0,7 l/m²
27.04.2015 01:11 12,8 °C 12,8 °C 92 % 1004,7 hPa 0.7 1,6 l/m²
27.04.2015 01:05 13,6 °C 13,6 °C 89 % 1005,2 hPa 45 0.7 0,1 l/m²
27.04.2015 01:00 13,5 °C 13,5 °C 90 % 1005,2 hPa 0.3 0,2 l/m²
27.04.2015 00:56 12,8 °C 12,8 °C 92 % 1004,8 hPa 1.0 1,5 l/m²
27.04.2015 00:50 13,8 °C 13,8 °C 89 % 1005,4 hPa 0.0 0,1 l/m²
27.04.2015 00:45 13,5 °C 13,5 °C 90 % 1005,2 hPa 0.3 0,2 l/m²
27.04.2015 00:40 13,8 °C 13,8 °C 89 % 1005,5 hPa 315 0.0 0 l/m²
27.04.2015 00:35 13,8 °C 13,8 °C 89 % 1005,4 hPa 0.0 0 l/m²
27.04.2015 00:31 13,0 °C 13,0 °C 91 % 1004,9 hPa 0.7 1,2 l/m²
27.04.2015 00:25 13,7 °C 13,7 °C 89 % 1005,4 hPa 0.0 0,1 l/m²
27.04.2015 00:20 13,8 °C 13,8 °C 89 % 1005,5 hPa 315 0.0 0 l/m²
27.04.2015 00:15 13,7 °C 13,7 °C 89 % 1005,3 hPa 0.0 0,1 l/m²
27.04.2015 00:10 13,9 °C 13,9 °C 89 % 1005,4 hPa 270 0.0 0 l/m²
27.04.2015 00:05 13,8 °C 13,8 °C 89 % 1005,5 hPa 315 0.0 0 l/m²
Neue Wetterwarnung

Neue Niederschlagsmeldung
Neue Meldung
Regen Liveticker
    sehr starker Regen/Gewitter
    starker Regen/Gewitter
    mäßiger bis starker Regen
    mäßiger Regen
    leichter bis mäßiger Regen
    kein Regen